Dream Mayreau — F50498P — position and weather

sailwx.info

Track history (hours):
 
Tides and Currents Weather Stations Pressure Air Temp Water Temp Dewpoint Dewpoint Depression Visibility Wind Speed Wind Dir Waves Ship Positions

Dream Mayreau

Last reported at 2018-Feb-18 03:57 UTC. Time now 2018-Feb-23 22:45 UTC.
Position N 14°17' W 060°58'.

Length 18 m.

Type: Sailing vessel. MMSI: 329016740.

Date/timePositionNaut miles runAvg speedWind from/ knotsBaromVisibWave heightAir tempDewpointWater temp
2018-Feb-18 03:57N 14°17' W 060°58'4 8.8
2018-Feb-18 03:30N 14°21' W 060°56'4 8.3
2018-Feb-18 03:00N 14°25' W 060°55'3 6.8
2018-Feb-18 02:30N 14°28' W 060°52'1 1.1
2018-Feb-18 01:59N 14°28' W 060°52'0 0.0
2018-Feb-18 01:29N 14°28' W 060°52'0 0.0
2018-Feb-18 00:59N 14°28' W 060°52'0 0.0
2018-Feb-18 00:29N 14°28' W 060°52'0 0.0
2018-Feb-17 23:59N 14°28' W 060°52'0 0.0
2018-Feb-17 23:29N 14°28' W 060°52'0 0.0
2018-Feb-17 22:59N 14°28' W 060°52'0 0.0
2018-Feb-17 22:29N 14°28' W 060°52'0 0.0
2018-Feb-17 21:59N 14°28' W 060°52'0 0.0
2018-Feb-17 21:29N 14°28' W 060°52'0 0.0
2018-Feb-17 20:59N 14°28' W 060°52'0 0.0
2018-Feb-17 20:29N 14°28' W 060°52'0 0.0
2018-Feb-17 19:56N 14°28' W 060°52'0 0.0
2018-Feb-17 19:29N 14°28' W 060°52'0 0.0
2018-Feb-17 18:59N 14°28' W 060°52'0 0.0
2018-Feb-17 18:29N 14°28' W 060°52'0 0.0
2018-Feb-17 17:59N 14°28' W 060°52'0 0.0
2018-Feb-17 17:29N 14°28' W 060°52'0 0.0
2018-Feb-17 16:59N 14°28' W 060°52'0 0.0
2018-Feb-17 16:29N 14°28' W 060°52'0 0.0
2018-Feb-17 15:59N 14°28' W 060°52'0 0.0
2018-Feb-17 15:29N 14°28' W 060°52'0 0.0
2018-Feb-17 14:59N 14°28' W 060°52'0 0.0
2018-Feb-17 14:29N 14°28' W 060°52'0 0.0
2018-Feb-17 13:59N 14°28' W 060°52'2 0.2
2018-Feb-17 03:23N 14°26' W 060°53'0 0.0
2018-Feb-17 02:59N 14°26' W 060°53'0 0.0
2018-Feb-17 02:29N 14°26' W 060°53'0 0.0
2018-Feb-17 01:59N 14°26' W 060°53'0 0.0
2018-Feb-17 01:29N 14°26' W 060°53'0 0.0
2018-Feb-17 00:59N 14°26' W 060°53'0 0.0
2018-Feb-17 00:29N 14°26' W 060°53'0 0.0
2018-Feb-16 23:59N 14°26' W 060°53'0 0.0
2018-Feb-16 23:29N 14°26' W 060°53'0 0.0
2018-Feb-16 22:59N 14°26' W 060°53'0 0.0
2018-Feb-16 22:29N 14°26' W 060°53'0 0.4
2018-Feb-16 22:00N 14°26' W 060°53'4 7.5
2018-Feb-16 21:29N 14°24' W 060°57'  
2018-Feb-11 02:37N 14°21' W 060°56'1 8.8
2018-Feb-11 02:30N 14°22' W 060°56'4 8.4
2018-Feb-11 01:58N 14°26' W 060°54'2 3.2
2018-Feb-11 01:30N 14°27' W 060°53'1 2.7
2018-Feb-11 01:00N 14°28' W 060°52'0 0.0
2018-Feb-11 00:30N 14°28' W 060°52'0 0.0
2018-Feb-10 23:51N 14°28' W 060°52'0 0.0
2018-Feb-10 23:27N 14°28' W 060°52'0 0.0
2018-Feb-10 23:00N 14°28' W 060°52'0 0.0
2018-Feb-10 22:24N 14°28' W 060°52'0 0.0
2018-Feb-10 22:00N 14°28' W 060°52'0 0.0
2018-Feb-10 21:30N 14°28' W 060°52'0 0.0
2018-Feb-10 20:42N 14°28' W 060°52'0 0.0
2018-Feb-10 20:18N 14°28' W 060°52'0 0.0
2018-Feb-10 19:54N 14°28' W 060°52'1 2.4
2018-Feb-10 19:27N 14°27' W 060°53'1 1.7
2018-Feb-10 18:48N 14°28' W 060°52'0 0.0
2018-Feb-10 18:27N 14°28' W 060°52'0 0.0
2018-Feb-10 12:33N 14°28' W 060°52'0 0.1
2018-Feb-10 12:30N 14°28' W 060°52'0 0.9
2018-Feb-10 12:00N 14°28' W 060°52'2 3.1
2018-Feb-10 11:28N 14°26' W 060°53'0 0.0
2018-Feb-10 10:58N 14°26' W 060°53'0 0.0
2018-Feb-10 10:28N 14°26' W 060°53'0 0.0
2018-Feb-10 00:18N 14°26' W 060°53'0 0.0
2018-Feb-10 00:00N 14°26' W 060°53'0 0.0
2018-Feb-09 23:30N 14°26' W 060°53'0 0.0
2018-Feb-09 23:00N 14°26' W 060°53'0 0.0
2018-Feb-09 22:45N 14°26' W 060°53'  
Track history (hours):
 
Tides and Currents Weather Stations Pressure Air Temp Water Temp Dewpoint Dewpoint Depression Visibility Wind Speed Wind Dir Waves Ship Positions

Dream Mayreau

Last reported at 2018-Feb-18 03:57 UTC. Time now 2018-Feb-23 22:45 UTC.
Position N 14°17' W 060°58'.

Length 18 m.

Type: Sailing vessel. MMSI: 329016740.

Date/timePositionNaut miles runAvg speedWind from/ knotsBaromVisibWave heightAir tempDewpointWater temp
2018-Feb-18 03:57N 14°17' W 060°58'4 8.8
2018-Feb-18 03:30N 14°21' W 060°56'4 8.3
2018-Feb-18 03:00N 14°25' W 060°55'3 6.8
2018-Feb-18 02:30N 14°28' W 060°52'1 1.1
2018-Feb-18 01:59N 14°28' W 060°52'0 0.0
2018-Feb-18 01:29N 14°28' W 060°52'0 0.0
2018-Feb-18 00:59N 14°28' W 060°52'0 0.0
2018-Feb-18 00:29N 14°28' W 060°52'0 0.0
2018-Feb-17 23:59N 14°28' W 060°52'0 0.0
2018-Feb-17 23:29N 14°28' W 060°52'0 0.0
2018-Feb-17 22:59N 14°28' W 060°52'0 0.0
2018-Feb-17 22:29N 14°28' W 060°52'0 0.0
2018-Feb-17 21:59N 14°28' W 060°52'0 0.0
2018-Feb-17 21:29N 14°28' W 060°52'0 0.0
2018-Feb-17 20:59N 14°28' W 060°52'0 0.0
2018-Feb-17 20:29N 14°28' W 060°52'0 0.0
2018-Feb-17 19:56N 14°28' W 060°52'0 0.0
2018-Feb-17 19:29N 14°28' W 060°52'0 0.0
2018-Feb-17 18:59N 14°28' W 060°52'0 0.0
2018-Feb-17 18:29N 14°28' W 060°52'0 0.0
2018-Feb-17 17:59N 14°28' W 060°52'0 0.0
2018-Feb-17 17:29N 14°28' W 060°52'0 0.0
2018-Feb-17 16:59N 14°28' W 060°52'0 0.0
2018-Feb-17 16:29N 14°28' W 060°52'0 0.0
2018-Feb-17 15:59N 14°28' W 060°52'0 0.0
2018-Feb-17 15:29N 14°28' W 060°52'0 0.0
2018-Feb-17 14:59N 14°28' W 060°52'0 0.0
2018-Feb-17 14:29N 14°28' W 060°52'0 0.0
2018-Feb-17 13:59N 14°28' W 060°52'2 0.2
2018-Feb-17 03:23N 14°26' W 060°53'0 0.0
2018-Feb-17 02:59N 14°26' W 060°53'0 0.0
2018-Feb-17 02:29N 14°26' W 060°53'0 0.0
2018-Feb-17 01:59N 14°26' W 060°53'0 0.0
2018-Feb-17 01:29N 14°26' W 060°53'0 0.0
2018-Feb-17 00:59N 14°26' W 060°53'0 0.0
2018-Feb-17 00:29N 14°26' W 060°53'0 0.0
2018-Feb-16 23:59N 14°26' W 060°53'0 0.0
2018-Feb-16 23:29N 14°26' W 060°53'0 0.0
2018-Feb-16 22:59N 14°26' W 060°53'0 0.0
2018-Feb-16 22:29N 14°26' W 060°53'0 0.4
2018-Feb-16 22:00N 14°26' W 060°53'4 7.5
2018-Feb-16 21:29N 14°24' W 060°57'  
2018-Feb-11 02:37N 14°21' W 060°56'1 8.8
2018-Feb-11 02:30N 14°22' W 060°56'4 8.4
2018-Feb-11 01:58N 14°26' W 060°54'2 3.2
2018-Feb-11 01:30N 14°27' W 060°53'1 2.7
2018-Feb-11 01:00N 14°28' W 060°52'0 0.0
2018-Feb-11 00:30N 14°28' W 060°52'0 0.0
2018-Feb-10 23:51N 14°28' W 060°52'0 0.0
2018-Feb-10 23:27N 14°28' W 060°52'0 0.0
2018-Feb-10 23:00N 14°28' W 060°52'0 0.0
2018-Feb-10 22:24N 14°28' W 060°52'0 0.0
2018-Feb-10 22:00N 14°28' W 060°52'0 0.0
2018-Feb-10 21:30N 14°28' W 060°52'0 0.0
2018-Feb-10 20:42N 14°28' W 060°52'0 0.0
2018-Feb-10 20:18N 14°28' W 060°52'0 0.0
2018-Feb-10 19:54N 14°28' W 060°52'1 2.4
2018-Feb-10 19:27N 14°27' W 060°53'1 1.7
2018-Feb-10 18:48N 14°28' W 060°52'0 0.0
2018-Feb-10 18:27N 14°28' W 060°52'0 0.0
2018-Feb-10 12:33N 14°28' W 060°52'0 0.1
2018-Feb-10 12:30N 14°28' W 060°52'0 0.9
2018-Feb-10 12:00N 14°28' W 060°52'2 3.1
2018-Feb-10 11:28N 14°26' W 060°53'0 0.0
2018-Feb-10 10:58N 14°26' W 060°53'0 0.0
2018-Feb-10 10:28N 14°26' W 060°53'0 0.0
2018-Feb-10 00:18N 14°26' W 060°53'0 0.0
2018-Feb-10 00:00N 14°26' W 060°53'0 0.0
2018-Feb-09 23:30N 14°26' W 060°53'0 0.0
2018-Feb-09 23:00N 14°26' W 060°53'0 0.0
2018-Feb-09 22:45N 14°26' W 060°53'  

Dump ship's entire track history